createdAt,value
2019-05-21T00:00:09.493Z,82.65
2019-05-21T00:01:09.477Z,82.51
2019-05-21T00:02:09.490Z,82.65
2019-05-21T00:03:09.468Z,82.76
2019-05-21T00:04:09.451Z,83.06
2019-05-21T00:05:09.435Z,83.06
2019-05-21T00:06:09.424Z,83.06
2019-05-21T00:07:09.420Z,82.86
2019-05-21T00:08:09.492Z,83.06
2019-05-21T00:09:09.400Z,82.76
2019-05-21T00:10:09.381Z,83.26
2019-05-21T00:11:09.371Z,83.56
2019-05-21T00:12:09.356Z,84.27
2019-05-21T00:13:09.361Z,84.17
2019-05-21T00:14:09.336Z,83.76
2019-05-21T00:15:09.342Z,84.61
2019-05-21T00:16:09.329Z,83.80
2019-05-21T00:17:09.341Z,84.71
2019-05-21T00:18:09.363Z,84.31
2019-05-21T00:19:09.313Z,84.31
2019-05-21T00:20:09.273Z,83.70
2019-05-21T00:21:09.279Z,83.91
2019-05-21T00:22:09.251Z,83.91
2019-05-21T00:23:09.249Z,84.51
2019-05-21T00:24:09.229Z,83.80
2019-05-21T00:25:09.224Z,84.41
2019-05-21T00:26:09.206Z,84.61
2019-05-21T00:27:09.212Z,84.41
2019-05-21T00:28:09.205Z,84.61
2019-05-21T00:29:09.170Z,84.41
2019-05-21T00:30:09.170Z,84.71
2019-05-21T00:31:09.148Z,84.31
2019-05-21T00:32:09.143Z,84.61
2019-05-21T00:33:09.127Z,83.91
2019-05-21T00:34:09.131Z,84.51
2019-05-21T00:35:09.106Z,84.41
2019-05-21T00:36:09.093Z,84.21
2019-05-21T00:37:09.081Z,84.31
2019-05-21T00:38:09.073Z,84.31
2019-05-21T00:39:09.079Z,84.01
2019-05-21T00:40:09.050Z,84.51
2019-05-21T00:41:09.106Z,84.61
2019-05-21T00:42:09.033Z,85.11
2019-05-21T00:43:09.020Z,84.81
2019-05-21T00:44:09.224Z,84.71
2019-05-21T00:45:08.995Z,84.71
2019-05-21T00:46:08.988Z,84.01
2019-05-21T00:47:08.975Z,84.15
2019-05-21T00:48:08.963Z,83.10
2019-05-21T00:49:09.103Z,84.85
2019-05-21T00:50:08.945Z,84.71
2019-05-21T00:51:08.928Z,83.95
2019-05-21T00:52:09.533Z,84.45
2019-05-21T00:53:08.908Z,84.35
2019-05-21T00:54:08.915Z,84.15
2019-05-21T00:55:08.884Z,84.65
2019-05-21T00:56:08.875Z,84.75
2019-05-21T00:57:08.863Z,84.45
2019-05-21T00:58:08.864Z,84.45
2019-05-21T00:59:08.854Z,84.65
2019-05-21T01:00:08.885Z,84.65
2019-05-21T01:01:08.820Z,83.54
2019-05-21T01:02:08.809Z,83.95
2019-05-21T01:03:08.803Z,84.75
2019-05-21T01:04:08.798Z,84.75
2019-05-21T01:05:08.792Z,84.35
2019-05-21T01:06:08.782Z,84.75
2019-05-21T01:07:08.756Z,84.65
2019-05-21T01:08:08.741Z,84.65
2019-05-21T01:09:08.746Z,84.45
2019-05-21T01:10:08.726Z,84.35
2019-05-21T01:11:08.709Z,84.65
2019-05-21T01:12:08.710Z,84.55
2019-05-21T01:13:08.689Z,84.35
2019-05-21T01:14:08.694Z,83.64
2019-05-21T01:15:08.666Z,82.84
2019-05-21T01:16:08.659Z,84.15
2019-05-21T01:17:08.643Z,84.75
2019-05-21T01:18:08.633Z,84.55
2019-05-21T01:19:08.655Z,84.35
2019-05-21T01:20:08.612Z,84.65
2019-05-21T01:21:08.599Z,83.54
2019-05-21T01:22:08.605Z,83.98
2019-05-21T01:23:08.581Z,83.07
2019-05-21T01:24:08.571Z,84.19
2019-05-21T01:25:08.626Z,84.75
2019-05-21T01:26:08.549Z,84.79
2019-05-21T01:27:08.544Z,84.49
2019-05-21T01:28:08.527Z,84.49
2019-05-21T01:29:08.514Z,84.49
2019-05-21T01:30:08.522Z,84.49
2019-05-21T01:31:08.494Z,84.79
2019-05-21T01:32:08.485Z,84.49
2019-05-21T01:33:08.467Z,84.59
2019-05-21T01:34:11.289Z,84.59
2019-05-21T01:35:16.585Z,84.49
2019-05-21T01:36:09.433Z,84.49
2019-05-21T01:37:08.425Z,84.59
2019-05-21T01:38:08.413Z,84.69
2019-05-21T01:39:08.401Z,84.79
2019-05-21T01:40:08.405Z,84.69
2019-05-21T01:41:08.380Z,84.59
2019-05-21T01:42:08.371Z,84.69
2019-05-21T01:43:08.358Z,84.79
2019-05-21T01:44:08.346Z,84.69
2019-05-21T01:45:08.349Z,84.49
2019-05-21T01:46:08.347Z,84.69
2019-05-21T01:47:08.315Z,84.39
2019-05-21T01:48:08.304Z,84.29
2019-05-21T01:49:08.297Z,84.69
2019-05-21T01:50:08.292Z,84.39
2019-05-21T01:51:08.295Z,84.43
2019-05-21T01:52:08.264Z,84.69
2019-05-21T01:53:08.250Z,84.79
2019-05-21T01:54:08.240Z,84.83
2019-05-21T01:55:08.239Z,84.12
2019-05-21T01:56:08.218Z,84.12
2019-05-21T01:57:08.206Z,83.92
2019-05-21T01:58:08.196Z,84.03
2019-05-21T01:59:08.185Z,84.33
2019-05-21T02:00:08.183Z,84.93
2019-05-21T02:01:08.159Z,84.63
2019-05-21T02:02:08.151Z,84.23
2019-05-21T02:03:08.140Z,84.83
2019-05-21T02:04:08.133Z,84.63
2019-05-21T02:05:08.170Z,84.63
2019-05-21T02:06:08.110Z,83.52
2019-05-21T02:07:08.094Z,84.03
2019-05-21T02:08:08.083Z,84.83
2019-05-21T02:09:08.072Z,84.43
2019-05-21T02:10:08.065Z,84.73
2019-05-21T02:11:08.066Z,84.63
2019-05-21T02:12:10.761Z,83.32
2019-05-21T02:13:08.027Z,84.73
2019-05-21T02:14:08.016Z,84.67
2019-05-21T02:15:08.006Z,84.12
2019-05-21T02:16:08.009Z,84.73
2019-05-21T02:17:07.983Z,84.73
2019-05-21T02:18:07.975Z,84.33
2019-05-21T02:19:07.961Z,84.83
2019-05-21T02:20:07.974Z,84.93
2019-05-21T02:21:07.969Z,84.83
2019-05-21T02:22:07.932Z,84.73
2019-05-21T02:23:07.921Z,84.93
2019-05-21T02:24:07.941Z,84.73
2019-05-21T02:25:07.897Z,84.73
2019-05-21T02:26:07.911Z,84.73
2019-05-21T02:27:07.908Z,84.57
2019-05-21T02:28:07.870Z,84.43
2019-05-21T02:29:07.855Z,84.77
2019-05-21T02:30:09.540Z,84.77
2019-05-21T02:31:07.844Z,84.47
2019-05-21T02:32:07.824Z,84.57
2019-05-21T02:33:07.811Z,84.47
2019-05-21T02:34:07.809Z,84.27
2019-05-21T02:35:07.787Z,84.87
2019-05-21T02:36:07.793Z,84.27
2019-05-21T02:37:07.765Z,84.67
2019-05-21T02:38:07.754Z,84.57
2019-05-21T02:39:07.755Z,84.77
2019-05-21T02:40:07.777Z,84.47
2019-05-21T02:41:07.741Z,84.87
2019-05-21T02:42:07.754Z,84.57
2019-05-21T02:43:07.704Z,84.57
2019-05-21T02:44:07.709Z,84.47
2019-05-21T02:45:07.684Z,84.47
2019-05-21T02:46:07.712Z,84.67
2019-05-21T02:47:07.668Z,84.77
2019-05-21T02:48:07.646Z,84.67
2019-05-21T02:49:07.632Z,84.37
2019-05-21T02:50:07.628Z,85.02
2019-05-21T02:51:07.611Z,84.81
2019-05-21T02:52:07.614Z,84.81
2019-05-21T02:53:07.588Z,84.67
2019-05-21T02:54:07.578Z,84.97
2019-05-21T02:55:07.581Z,84.41
2019-05-21T02:56:07.569Z,84.47
2019-05-21T02:57:07.553Z,84.71
2019-05-21T02:58:07.538Z,85.17
2019-05-21T02:59:07.524Z,85.11
2019-05-21T03:00:07.513Z,85.11
2019-05-21T03:01:07.501Z,84.91
2019-05-21T03:02:07.518Z,84.81
2019-05-21T03:03:07.479Z,84.87
2019-05-21T03:04:07.470Z,84.81
2019-05-21T03:05:07.456Z,84.20
2019-05-21T03:06:13.938Z,84.91
2019-05-21T03:07:08.448Z,84.11
2019-05-21T03:08:07.425Z,84.71
2019-05-21T03:09:07.412Z,84.61
2019-05-21T03:10:07.400Z,84.20
2019-05-21T03:11:07.395Z,84.81
2019-05-21T03:12:07.391Z,84.61
2019-05-21T03:13:07.369Z,84.81
2019-05-21T03:14:07.367Z,85.11
2019-05-21T03:15:07.347Z,85.02
2019-05-21T03:16:07.336Z,85.02
2019-05-21T03:17:07.336Z,84.81
2019-05-21T03:18:07.315Z,84.81
2019-05-21T03:19:07.306Z,84.31
2019-05-21T03:20:07.297Z,84.71
2019-05-21T03:21:07.302Z,85.42
2019-05-21T03:22:07.280Z,84.55
2019-05-21T03:23:07.260Z,85.31
2019-05-21T03:24:07.248Z,85.31
2019-05-21T03:25:07.246Z,85.56
2019-05-21T03:26:07.226Z,85.66
2019-05-21T03:27:07.229Z,85.36
2019-05-21T03:28:07.203Z,85.05
2019-05-21T03:29:07.208Z,84.71
2019-05-21T03:30:07.190Z,85.31
2019-05-21T03:31:07.169Z,85.05
2019-05-21T03:32:07.216Z,85.36
2019-05-21T03:33:07.152Z,83.74
2019-05-21T03:34:07.137Z,84.65
2019-05-21T03:35:07.141Z,84.45
2019-05-21T03:36:07.114Z,84.65
2019-05-21T03:37:07.105Z,84.65
2019-05-21T03:38:07.105Z,84.81
2019-05-21T03:39:07.083Z,84.95
2019-05-21T03:40:07.080Z,84.65
2019-05-21T03:41:07.059Z,85.22
2019-05-21T03:42:07.058Z,85.11
2019-05-21T03:43:07.051Z,85.16
2019-05-21T03:44:07.026Z,84.85
2019-05-21T03:45:08.045Z,84.65
2019-05-21T03:46:07.006Z,85.05
2019-05-21T03:47:06.997Z,85.36
2019-05-21T03:48:06.999Z,85.16
2019-05-21T03:49:06.970Z,84.75
2019-05-21T03:50:06.976Z,85.25
2019-05-21T03:51:06.949Z,85.36
2019-05-21T03:52:06.942Z,85.36
2019-05-21T03:53:06.946Z,84.95
2019-05-21T03:54:06.923Z,84.65
2019-05-21T03:55:06.906Z,84.55
2019-05-21T03:56:06.896Z,84.55
2019-05-21T03:57:06.886Z,84.85
2019-05-21T03:58:06.921Z,84.85
2019-05-21T03:59:06.862Z,84.95
2019-05-21T04:00:06.850Z,84.85
2019-05-21T04:01:06.844Z,85.25
2019-05-21T04:02:06.844Z,85.46
2019-05-21T04:03:06.831Z,85.05
2019-05-21T04:04:06.807Z,84.95
2019-05-21T04:05:06.811Z,84.85
2019-05-21T04:06:06.789Z,84.65
2019-05-21T04:07:06.772Z,84.14
2019-05-21T04:08:06.775Z,84.85
2019-05-21T04:09:06.751Z,84.65
2019-05-21T04:10:06.745Z,84.55
2019-05-21T04:11:06.732Z,84.65
2019-05-21T04:12:06.720Z,84.25
2019-05-21T04:13:06.717Z,84.95
2019-05-21T04:14:06.695Z,84.14
2019-05-21T04:15:06.683Z,84.65
2019-05-21T04:16:06.677Z,85.36
2019-05-21T04:17:06.662Z,84.65
2019-05-21T04:18:06.664Z,84.65
2019-05-21T04:19:06.642Z,84.85
2019-05-21T04:20:06.651Z,84.75
2019-05-21T04:21:06.629Z,84.14
2019-05-21T04:22:06.622Z,84.65
2019-05-21T04:23:06.599Z,84.85
2019-05-21T04:24:09.156Z,84.85
2019-05-21T04:25:06.580Z,84.55
2019-05-21T04:26:06.563Z,84.65
2019-05-21T04:27:06.564Z,84.75
2019-05-21T04:28:06.545Z,83.94
2019-05-21T04:29:06.540Z,84.65
2019-05-21T04:30:06.521Z,84.34
2019-05-21T04:31:06.508Z,84.95
2019-05-21T04:32:06.511Z,84.14
2019-05-21T04:33:06.505Z,83.33
2019-05-21T04:34:06.476Z,83.80
2019-05-21T04:35:06.466Z,84.55
2019-05-21T04:36:06.463Z,84.51
2019-05-21T04:37:10.822Z,84.55
2019-05-21T04:38:07.461Z,84.51
2019-05-21T04:39:06.439Z,84.00
2019-05-21T04:40:06.411Z,84.11
2019-05-21T04:41:06.399Z,83.70
2019-05-21T04:42:06.397Z,84.81
2019-05-21T04:43:06.461Z,84.71
2019-05-21T04:44:06.366Z,83.80
2019-05-21T04:45:06.362Z,83.70
2019-05-21T04:46:06.342Z,83.29
2019-05-21T04:47:06.355Z,82.99
2019-05-21T04:48:06.321Z,82.69
2019-05-21T04:49:06.309Z,83.29
2019-05-21T04:50:06.301Z,82.89
2019-05-21T04:51:06.295Z,82.89
2019-05-21T04:52:06.295Z,82.75
2019-05-21T04:53:06.265Z,82.28
2019-05-21T04:54:06.254Z,82.89
2019-05-21T04:55:06.249Z,82.39
2019-05-21T04:56:06.237Z,82.59
2019-05-21T04:57:06.234Z,82.89
2019-05-21T04:58:06.211Z,83.05
2019-05-21T04:59:06.208Z,82.95
2019-05-21T05:00:06.201Z,83.15
2019-05-21T05:01:06.177Z,82.65
2019-05-21T05:02:06.178Z,82.35
2019-05-21T05:03:06.159Z,82.75
2019-05-21T05:04:06.152Z,83.05
2019-05-21T05:05:06.134Z,83.26
2019-05-21T05:06:06.122Z,82.71
2019-05-21T05:07:06.128Z,82.71
2019-05-21T05:08:06.107Z,81.94
2019-05-21T05:09:06.090Z,82.95
2019-05-21T05:10:06.080Z,81.60
2019-05-21T05:11:06.067Z,80.99
2019-05-21T05:12:06.092Z,80.99
2019-05-21T05:13:06.058Z,81.70
2019-05-21T05:14:06.035Z,81.50
2019-05-21T05:15:06.023Z,81.50
2019-05-21T05:16:06.012Z,81.30
2019-05-21T05:17:06.001Z,80.49
2019-05-21T05:18:05.999Z,80.39
2019-05-21T05:19:05.982Z,81.30
2019-05-21T05:20:05.969Z,80.99
2019-05-21T05:21:05.959Z,81.16
2019-05-21T05:22:05.947Z,81.16
2019-05-21T05:23:05.962Z,80.59
2019-05-21T05:24:05.930Z,80.65
2019-05-21T05:25:05.914Z,80.65
2019-05-21T05:26:05.905Z,80.65
2019-05-21T05:27:05.896Z,80.05
2019-05-21T05:28:05.916Z,80.55
2019-05-21T05:29:05.875Z,80.25
2019-05-21T05:30:05.859Z,80.05
2019-05-21T05:31:05.851Z,80.41
2019-05-21T05:32:05.885Z,80.31
2019-05-21T05:33:05.835Z,80.41
2019-05-21T05:34:05.815Z,80.11
2019-05-21T05:35:05.804Z,80.21
2019-05-21T05:36:05.792Z,79.81
2019-05-21T05:37:05.783Z,80.01
2019-05-21T05:38:05.781Z,79.97
2019-05-21T05:39:05.759Z,79.91
2019-05-21T05:40:05.770Z,79.00
2019-05-21T05:41:05.741Z,79.27
2019-05-21T05:42:05.726Z,79.36
2019-05-21T05:43:05.728Z,79.27
2019-05-21T05:44:05.704Z,78.42
2019-05-21T05:45:05.695Z,79.23
2019-05-21T05:46:05.683Z,79.13
2019-05-21T05:47:05.704Z,78.52
2019-05-21T05:48:05.677Z,78.42
2019-05-21T05:49:05.651Z,78.52
2019-05-21T05:50:05.640Z,79.03
2019-05-21T05:51:05.628Z,78.63
2019-05-21T05:52:05.628Z,79.09
2019-05-21T05:53:05.683Z,78.28
2019-05-21T05:54:07.682Z,78.39
2019-05-21T05:55:05.608Z,78.25
2019-05-21T05:56:05.578Z,77.24
2019-05-21T05:57:05.562Z,78.11
2019-05-21T05:58:05.571Z,76.90
2019-05-21T05:59:05.548Z,77.40
2019-05-21T06:00:05.529Z,77.20
2019-05-21T06:01:05.519Z,77.07
2019-05-21T06:02:05.508Z,75.96
2019-05-21T06:03:05.505Z,76.46
2019-05-21T06:04:05.572Z,76.56
2019-05-21T06:05:05.485Z,76.46
2019-05-21T06:06:05.470Z,76.06
2019-05-21T06:07:05.455Z,76.23
2019-05-21T06:08:05.474Z,75.92
2019-05-21T06:09:05.436Z,76.12
2019-05-21T06:10:05.426Z,74.98
2019-05-21T06:11:05.412Z,75.18
2019-05-21T06:12:05.402Z,75.29
2019-05-21T06:13:05.390Z,74.98
2019-05-21T06:14:05.386Z,74.78
2019-05-21T06:15:05.449Z,74.65
2019-05-21T06:16:05.358Z,73.94
2019-05-21T06:17:05.357Z,74.74
2019-05-21T06:18:05.333Z,73.04
2019-05-21T06:19:05.334Z,74.35
2019-05-21T06:20:05.427Z,73.34
2019-05-21T06:21:12.168Z,72.74
2019-05-21T06:22:06.170Z,73.44
2019-05-21T06:23:06.275Z,73.10
2019-05-21T06:24:05.682Z,73.41
2019-05-21T06:25:06.564Z,73.30
2019-05-21T06:26:05.259Z,73.37
2019-05-21T06:27:05.233Z,72.97
2019-05-21T06:28:05.223Z,73.17
2019-05-21T06:29:05.223Z,72.74
2019-05-21T06:30:05.200Z,72.09
2019-05-21T06:31:05.240Z,71.50
2019-05-21T06:32:05.180Z,70.36
2019-05-21T06:33:05.167Z,70.26
2019-05-21T06:34:05.173Z,70.86
2019-05-21T06:35:05.145Z,70.53
2019-05-21T06:36:05.387Z,69.12
2019-05-21T06:37:05.150Z,67.89
2019-05-21T06:38:17.273Z,68.69
2019-05-21T06:39:06.110Z,67.86
2019-05-21T06:40:05.096Z,68.36
2019-05-21T06:41:05.088Z,68.52
2019-05-21T06:42:05.070Z,65.72
2019-05-21T06:43:05.059Z,67.40
2019-05-21T06:44:05.058Z,66.49
2019-05-21T06:45:05.123Z,65.76
2019-05-21T06:46:05.025Z,63.79
2019-05-21T06:47:05.015Z,65.36
2019-05-21T06:48:05.005Z,65.76
2019-05-21T06:49:05.001Z,65.06
2019-05-21T06:50:04.982Z,65.79
2019-05-21T06:51:04.978Z,65.39
2019-05-21T06:52:04.964Z,65.09
2019-05-21T06:53:04.949Z,62.72
2019-05-21T06:54:04.958Z,63.22
2019-05-21T06:55:04.927Z,63.82
2019-05-21T06:56:07.602Z,65.33
2019-05-21T06:57:04.906Z,65.52
2019-05-21T06:58:04.912Z,65.19
2019-05-21T06:59:04.892Z,63.92
2019-05-21T07:00:04.878Z,63.72
2019-05-21T07:01:04.865Z,63.69
2019-05-21T07:02:04.882Z,65.12
2019-05-21T07:03:04.843Z,63.69
2019-05-21T07:04:04.879Z,63.69
2019-05-21T07:05:04.819Z,64.99
2019-05-21T07:06:04.825Z,63.69
2019-05-21T07:07:04.798Z,63.49
2019-05-21T07:08:04.787Z,64.03
2019-05-21T07:09:04.783Z,62.70
2019-05-21T07:10:04.766Z,63.62
2019-05-21T07:11:04.970Z,65.62
2019-05-21T07:12:04.745Z,65.72
2019-05-21T07:13:04.765Z,63.79
2019-05-21T07:14:04.737Z,64.39
2019-05-21T07:15:04.711Z,64.79
2019-05-21T07:16:04.698Z,65.19
2019-05-21T07:17:04.694Z,65.39
2019-05-21T07:18:04.687Z,63.89
2019-05-21T07:19:04.693Z,64.69
2019-05-21T07:20:04.655Z,64.49
2019-05-21T07:21:04.651Z,65.59
2019-05-21T07:22:12.775Z,65.79
2019-05-21T07:23:05.793Z,65.29
2019-05-21T07:24:04.626Z,65.29
2019-05-21T07:25:04.604Z,65.19
2019-05-21T07:26:04.617Z,65.39
2019-05-21T07:27:04.580Z,65.29
2019-05-21T07:28:04.571Z,64.69
2019-05-21T07:29:04.565Z,65.39
2019-05-21T07:30:04.558Z,65.59
2019-05-21T07:31:04.542Z,65.79
2019-05-21T07:32:04.527Z,65.59
2019-05-21T07:33:04.552Z,65.69
2019-05-21T07:34:04.509Z,65.26
2019-05-21T07:35:04.501Z,65.19
2019-05-21T07:36:04.483Z,66.06
2019-05-21T07:37:04.473Z,65.66
2019-05-21T07:38:04.459Z,65.76
2019-05-21T07:39:04.447Z,65.06
2019-05-21T07:40:04.459Z,65.26
2019-05-21T07:41:04.426Z,65.76
2019-05-21T07:42:04.414Z,65.56
2019-05-21T07:43:04.410Z,65.36
2019-05-21T07:44:04.401Z,63.66
2019-05-21T07:45:04.388Z,63.66
2019-05-21T07:46:04.370Z,64.03
2019-05-21T07:47:04.359Z,64.96
2019-05-21T07:48:04.366Z,64.93
2019-05-21T07:49:04.340Z,64.03
2019-05-21T07:50:04.336Z,63.93
2019-05-21T07:51:04.315Z,63.43
2019-05-21T07:52:04.304Z,63.63
2019-05-21T07:53:04.323Z,63.93
2019-05-21T07:54:04.329Z,63.63
2019-05-21T07:55:04.292Z,63.93
2019-05-21T07:56:04.261Z,63.13
2019-05-21T07:57:04.257Z,61.93
2019-05-21T07:58:04.239Z,62.23
2019-05-21T07:59:04.330Z,60.53
2019-05-21T08:00:04.222Z,62.81
2019-05-21T08:01:04.214Z,62.73
2019-05-21T08:02:04.198Z,62.50
2019-05-21T08:03:04.186Z,62.30
2019-05-21T08:04:04.178Z,62.30
2019-05-21T08:05:04.175Z,61.80
2019-05-21T08:06:04.151Z,61.21
2019-05-21T08:07:04.141Z,61.41
2019-05-21T08:08:04.127Z,60.97
2019-05-21T08:09:13.543Z,61.98
2019-05-21T08:10:05.114Z,61.47
2019-05-21T08:11:04.097Z,59.68
2019-05-21T08:12:22.807Z,60.97
2019-05-21T08:13:05.079Z,60.78
2019-05-21T08:14:04.063Z,59.48
2019-05-21T08:15:04.088Z,60.28
2019-05-21T08:16:04.041Z,60.25
2019-05-21T08:17:04.034Z,59.35
2019-05-21T08:18:04.026Z,58.36
2019-05-21T08:19:04.009Z,58.92
2019-05-21T08:20:09.144Z,57.28
2019-05-21T08:21:04.995Z,56.65
2019-05-21T08:22:03.983Z,55.93
2019-05-21T08:23:03.968Z,54.58
2019-05-21T08:24:03.964Z,52.37
2019-05-21T08:25:03.953Z,53.11
2019-05-21T08:26:03.945Z,50.78
2019-05-21T08:27:03.923Z,48.85
2019-05-21T08:28:03.917Z,48.08
2019-05-21T08:29:03.904Z,47.17
2019-05-21T08:30:03.894Z,46.04
2019-05-21T08:31:03.926Z,46.70
2019-05-21T08:32:03.871Z,46.17
2019-05-21T08:33:03.861Z,44.87
2019-05-21T08:34:03.851Z,43.76
2019-05-21T08:35:03.845Z,43.64
2019-05-21T08:36:04.287Z,43.42
2019-05-21T08:37:03.821Z,42.83
2019-05-21T08:38:06.584Z,43.42
2019-05-21T08:39:03.801Z,42.65
2019-05-21T08:40:03.790Z,41.77
2019-05-21T08:41:03.800Z,42.14
2019-05-21T08:42:03.847Z,41.25
2019-05-21T08:43:03.765Z,42.12
2019-05-21T08:44:03.825Z,40.90
2019-05-21T08:45:04.082Z,39.29
2019-05-21T08:46:03.805Z,39.07
2019-05-21T08:47:03.759Z,37.76
2019-05-21T08:48:03.727Z,37.15
2019-05-21T08:49:03.705Z,37.31
2019-05-21T08:50:03.704Z,35.93
2019-05-21T08:51:03.693Z,36.10
2019-05-21T08:52:03.668Z,35.89
2019-05-21T08:53:03.663Z,35.77
2019-05-21T08:54:03.650Z,34.78
2019-05-21T08:55:03.638Z,35.25
2019-05-21T08:56:03.642Z,33.98
2019-05-21T08:57:03.620Z,33.67
2019-05-21T08:58:07.387Z,33.46
2019-05-21T08:59:03.600Z,33.95
2019-05-21T09:00:03.592Z,31.88
2019-05-21T09:01:03.609Z,33.15
2019-05-21T09:02:03.588Z,31.88
2019-05-21T09:03:03.560Z,32.89
2019-05-21T09:04:03.551Z,33.50
2019-05-21T09:05:03.541Z,34.21
2019-05-21T09:06:03.541Z,33.74
2019-05-21T09:07:03.518Z,35.09
2019-05-21T09:08:03.510Z,34.99
2019-05-21T09:09:03.498Z,34.36
2019-05-21T09:10:03.489Z,33.34
2019-05-21T09:11:03.489Z,31.56
2019-05-21T09:12:03.486Z,30.96
2019-05-21T09:13:03.469Z,31.32
2019-05-21T09:14:03.450Z,29.86
2019-05-21T09:15:03.442Z,29.05
2019-05-21T09:16:03.438Z,29.72
2019-05-21T09:17:03.425Z,29.43
2019-05-21T09:18:03.421Z,28.81
2019-05-21T09:19:03.402Z,29.10
2019-05-21T09:20:03.417Z,28.59
2019-05-21T09:21:03.403Z,28.11
2019-05-21T09:22:03.373Z,27.81
2019-05-21T09:23:03.370Z,27.31
2019-05-21T09:24:03.422Z,28.07
2019-05-21T09:25:03.696Z,26.41
2019-05-21T09:26:03.349Z,26.79
2019-05-21T09:27:03.326Z,26.89
2019-05-21T09:28:03.317Z,26.42
2019-05-21T09:29:03.311Z,26.12
2019-05-21T09:30:03.305Z,26.10
2019-05-21T09:31:03.327Z,25.03
2019-05-21T09:32:03.278Z,25.71
2019-05-21T09:33:03.302Z,24.84
2019-05-21T09:34:03.261Z,25.99
2019-05-21T09:35:03.263Z,26.53
2019-05-21T09:36:03.242Z,26.21
2019-05-21T09:37:18.185Z,28.29
2019-05-21T09:38:04.224Z,28.43
2019-05-21T09:39:03.212Z,28.75
2019-05-21T09:40:03.224Z,29.08
2019-05-21T09:41:03.195Z,30.38
2019-05-21T09:42:03.200Z,30.71
2019-05-21T09:43:03.212Z,32.01
2019-05-21T09:44:03.165Z,32.32
2019-05-21T09:45:03.178Z,32.22
2019-05-21T09:46:03.144Z,32.30
2019-05-21T09:47:03.165Z,31.59
2019-05-21T09:48:03.131Z,32.70
2019-05-21T09:49:03.113Z,32.14
2019-05-21T09:50:03.713Z,31.57
2019-05-21T09:51:03.102Z,30.54
2019-05-21T09:52:03.096Z,30.49
2019-05-21T09:53:03.093Z,29.47
2019-05-21T09:54:03.064Z,28.47
2019-05-21T09:55:03.054Z,28.94
2019-05-21T09:56:03.044Z,28.53
2019-05-21T09:57:03.043Z,28.02
2019-05-21T09:58:03.022Z,28.09
2019-05-21T09:59:03.012Z,26.72
2019-05-21T10:00:03.909Z,26.21
2019-05-21T10:01:02.997Z,26.10
2019-05-21T10:02:02.994Z,25.42
2019-05-21T10:03:02.974Z,26.10
2019-05-21T10:04:02.967Z,26.41
2019-05-21T10:05:02.957Z,25.61
2019-05-21T10:06:02.947Z,25.50
2019-05-21T10:07:02.959Z,25.39
2019-05-21T10:08:02.929Z,25.38
2019-05-21T10:09:02.917Z,24.11
2019-05-21T10:10:02.915Z,25.93
2019-05-21T10:11:02.895Z,26.46
2019-05-21T10:12:02.898Z,28.54
2019-05-21T10:13:02.918Z,28.17
2019-05-21T10:14:02.893Z,28.99
2019-05-21T10:15:02.867Z,29.13
2019-05-21T10:16:02.846Z,29.53
2019-05-21T10:17:02.849Z,29.82
2019-05-21T10:18:02.829Z,30.05
2019-05-21T10:19:02.831Z,28.79
2019-05-21T10:20:02.814Z,31.77
2019-05-21T10:21:02.807Z,31.98
2019-05-21T10:22:02.935Z,32.30
2019-05-21T10:23:02.777Z,33.39
2019-05-21T10:24:02.774Z,33.02
2019-05-21T10:25:02.755Z,33.09
2019-05-21T10:26:02.752Z,32.09
2019-05-21T10:27:03.495Z,33.51
2019-05-21T10:28:02.726Z,33.53
2019-05-21T10:29:02.718Z,34.10
2019-05-21T10:30:02.707Z,33.61
2019-05-21T10:31:02.699Z,34.41
2019-05-21T10:32:02.691Z,36.30
2019-05-21T10:33:02.672Z,35.05
2019-05-21T10:34:02.682Z,35.85
2019-05-21T10:35:03.237Z,36.28
2019-05-21T10:36:02.642Z,35.41
2019-05-21T10:37:02.814Z,36.61
2019-05-21T10:38:02.620Z,37.41
2019-05-21T10:39:02.610Z,37.22
2019-05-21T10:40:03.194Z,37.53
2019-05-21T10:41:02.595Z,38.04
2019-05-21T10:42:02.588Z,37.55
2019-05-21T10:43:02.575Z,38.45
2019-05-21T10:44:02.558Z,39.44
2019-05-21T10:45:02.549Z,40.31
2019-05-21T10:46:02.536Z,39.23
2019-05-21T10:47:02.525Z,39.54
2019-05-21T10:48:02.525Z,40.33
2019-05-21T10:49:02.503Z,39.56
2019-05-21T10:50:02.493Z,39.65
2019-05-21T10:51:02.486Z,41.02
2019-05-21T10:52:02.480Z,40.90
2019-05-21T10:53:02.469Z,40.31
2019-05-21T10:54:02.448Z,39.34
2019-05-21T10:55:02.439Z,40.33
2019-05-21T10:56:02.488Z,40.64
2019-05-21T10:57:02.432Z,40.64
2019-05-21T10:58:02.439Z,41.46
2019-05-21T10:59:02.398Z,40.66
2019-05-21T11:00:02.386Z,39.99
2019-05-21T11:01:02.379Z,40.78
2019-05-21T11:02:02.370Z,41.69
2019-05-21T11:03:02.366Z,42.29
2019-05-21T11:04:02.345Z,43.17
2019-05-21T11:05:02.334Z,42.30
2019-05-21T11:06:10.065Z,42.70
2019-05-21T11:07:03.312Z,43.71
2019-05-21T11:08:22.864Z,42.13
2019-05-21T11:09:03.293Z,42.43
2019-05-21T11:10:02.413Z,42.05
2019-05-21T11:11:02.274Z,43.04
2019-05-21T11:12:02.258Z,41.18
2019-05-21T11:13:02.257Z,41.67
2019-05-21T11:14:02.234Z,42.57
2019-05-21T11:15:02.252Z,43.28
2019-05-21T11:16:02.244Z,43.57
2019-05-21T11:17:02.213Z,43.48
2019-05-21T11:18:10.588Z,44.68
2019-05-21T11:19:03.190Z,45.57
2019-05-21T11:20:02.172Z,44.78
2019-05-21T11:21:02.178Z,45.18
2019-05-21T11:22:02.148Z,44.98
2019-05-21T11:23:02.146Z,46.09
2019-05-21T11:24:02.336Z,45.40
2019-05-21T11:25:02.115Z,45.60
2019-05-21T11:26:02.144Z,45.79
2019-05-21T11:27:04.715Z,45.72
2019-05-21T11:28:05.860Z,46.42
2019-05-21T11:29:02.152Z,46.02
2019-05-21T11:30:02.069Z,44.93
2019-05-21T11:31:02.054Z,45.92
2019-05-21T11:32:02.044Z,46.64
2019-05-21T11:33:02.033Z,45.03
2019-05-21T11:34:02.035Z,44.23
2019-05-21T11:35:02.032Z,45.45
2019-05-21T11:36:02.004Z,44.95
2019-05-21T11:37:01.989Z,45.72
2019-05-21T11:38:01.982Z,45.32
2019-05-21T11:39:02.341Z,46.04
2019-05-21T11:40:01.954Z,46.93
2019-05-21T11:41:02.066Z,46.44
2019-05-21T11:42:01.939Z,46.64
2019-05-21T11:43:01.924Z,46.53
2019-05-21T11:44:01.927Z,46.34
2019-05-21T11:45:01.918Z,46.26
2019-05-21T11:46:03.134Z,45.76
2019-05-21T11:47:01.889Z,46.46
2019-05-21T11:48:01.888Z,46.24
2019-05-21T11:49:01.875Z,47.16
2019-05-21T11:50:01.857Z,47.45
2019-05-21T11:51:01.840Z,47.43
2019-05-21T11:52:01.823Z,47.85
2019-05-21T11:53:01.814Z,47.53
2019-05-21T11:54:01.817Z,48.65
2019-05-21T11:55:01.798Z,48.94
2019-05-21T11:56:01.782Z,48.74
2019-05-21T11:57:01.771Z,48.94
2019-05-21T11:58:01.758Z,48.47
2019-05-21T11:59:01.758Z,48.77
2019-05-21T12:00:01.744Z,47.97
2019-05-21T12:01:01.726Z,48.57
2019-05-21T12:02:01.715Z,49.16
2019-05-21T12:03:01.765Z,49.08
2019-05-21T12:04:01.709Z,48.99
2019-05-21T12:05:01.703Z,49.29
2019-05-21T12:06:01.676Z,47.70
2019-05-21T12:07:03.429Z,49.19
2019-05-21T12:08:01.654Z,49.58
2019-05-21T12:09:01.652Z,48.99
2019-05-21T12:10:01.631Z,49.86
2019-05-21T12:11:01.621Z,49.68
2019-05-21T12:12:01.606Z,49.88
2019-05-21T12:13:01.619Z,48.79
2019-05-21T12:14:01.594Z,48.89
2019-05-21T12:15:01.669Z,48.79
2019-05-21T12:16:01.564Z,49.08
2019-05-21T12:17:01.566Z,49.38
2019-05-21T12:18:01.542Z,48.89
2019-05-21T12:19:01.553Z,49.88
2019-05-21T12:20:01.546Z,49.98
2019-05-21T12:21:01.515Z,49.19
2019-05-21T12:22:01.516Z,49.38
2019-05-21T12:23:01.509Z,49.98
2019-05-21T12:24:01.498Z,49.38
2019-05-21T12:25:01.486Z,49.96
2019-05-21T12:26:01.460Z,49.88
2019-05-21T12:27:01.450Z,49.29
2019-05-21T12:28:01.446Z,49.88
2019-05-21T12:29:01.468Z,49.88
2019-05-21T12:30:01.422Z,49.29
2019-05-21T12:31:01.481Z,49.68
2019-05-21T12:32:01.402Z,49.66
2019-05-21T12:33:01.407Z,49.96
2019-05-21T12:34:01.396Z,50.08
2019-05-21T12:35:01.397Z,49.29
2019-05-21T12:36:01.354Z,49.86
2019-05-21T12:37:01.343Z,49.07
2019-05-21T12:38:01.331Z,48.77
2019-05-21T12:39:13.860Z,48.77
2019-05-21T12:40:02.316Z,47.67
2019-05-21T12:41:01.308Z,49.26
2019-05-21T12:42:01.292Z,48.86
2019-05-21T12:43:01.269Z,48.27
2019-05-21T12:44:01.260Z,48.47
2019-05-21T12:45:01.262Z,47.77
2019-05-21T12:46:01.236Z,47.87
2019-05-21T12:47:01.225Z,48.27
2019-05-21T12:48:01.215Z,47.47
2019-05-21T12:49:01.207Z,48.47
2019-05-21T12:50:01.218Z,48.57
2019-05-21T12:51:01.189Z,47.08
2019-05-21T12:52:01.187Z,47.47